Goldboro, Canada
Current Conditions -  °F | °C
As of 7:21 PM on Saturday 25 Oct 2014 (Local Time) from CYPD Reporting Station
Haze Haze  
Wind Chill: 50°   Ceiling: 1000
Heat Index: 50°   Visibility: 5mi
Dew Point: 48°   Wind: 7mph
Humidity: 94%   Direction: 270°W
Pressure: 29.46"   Gusts: NA
Location:  45.18°N, 61.65°W
Report Text: CYPD 252221Z AUTO 27006KT 5SM BR OVC010 10/09 A2946 RMK SLP979
Loading
Personal Weather Stations






























Interactive Weather Map New forecast layout! Learn more

10-Day Weather Forecast

Advertisements
Track Severe Weather on mobile